createdAt,value
2017-08-17T00:01:20.611Z,20.40
2017-08-17T00:03:46.912Z,20.40
2017-08-17T00:06:13.252Z,20.40
2017-08-17T00:08:39.608Z,20.30
2017-08-17T00:11:05.916Z,20.30
2017-08-17T00:13:32.963Z,20.30
2017-08-17T00:16:00.049Z,20.30
2017-08-17T00:18:26.367Z,20.30
2017-08-17T00:20:52.715Z,20.30
2017-08-17T00:23:19.019Z,20.30
2017-08-17T00:25:46.214Z,20.30
2017-08-17T00:28:12.559Z,20.30
2017-08-17T00:30:38.920Z,20.30
2017-08-17T00:33:05.967Z,20.30
2017-08-17T00:35:33.048Z,20.30
2017-08-17T00:37:59.407Z,20.30
2017-08-17T00:40:25.763Z,20.30
2017-08-17T00:42:52.084Z,20.30
2017-08-17T00:45:18.401Z,20.20
2017-08-17T00:47:44.743Z,20.20
2017-08-17T00:50:11.272Z,20.20
2017-08-17T00:52:37.628Z,20.20
2017-08-17T00:55:03.999Z,20.20
2017-08-17T00:57:30.345Z,20.20
2017-08-17T00:59:56.660Z,20.20
2017-08-17T01:02:22.991Z,20.20
2017-08-17T01:04:49.329Z,20.20
2017-08-17T01:07:15.729Z,20.10
2017-08-17T01:09:42.796Z,20.10
2017-08-17T01:12:09.106Z,20.10
2017-08-17T01:14:36.307Z,20.10
2017-08-17T01:17:02.643Z,20.10
2017-08-17T01:19:28.984Z,20.10
2017-08-17T01:21:55.370Z,20.10
2017-08-17T01:24:21.721Z,20.10
2017-08-17T01:26:48.104Z,20.10
2017-08-17T01:29:14.461Z,20.10
2017-08-17T01:31:40.836Z,20.10
2017-08-17T01:34:07.177Z,20.10
2017-08-17T01:36:33.674Z,20.00
2017-08-17T01:39:00.015Z,20.00
2017-08-17T01:41:26.352Z,20.00
2017-08-17T01:43:52.735Z,20.00
2017-08-17T01:46:19.940Z,20.00
2017-08-17T01:48:46.287Z,20.00
2017-08-17T01:51:12.719Z,20.00
2017-08-17T01:53:39.100Z,20.00
2017-08-17T01:56:05.679Z,20.00
2017-08-17T01:58:32.072Z,20.00
2017-08-17T02:00:58.413Z,20.00
2017-08-17T02:03:24.771Z,20.00
2017-08-17T02:05:51.264Z,20.00
2017-08-17T02:08:17.823Z,20.00
2017-08-17T02:10:44.177Z,20.00
2017-08-17T02:13:10.526Z,20.00
2017-08-17T02:15:37.202Z,20.00
2017-08-17T02:18:03.553Z,20.00
2017-08-17T02:20:30.062Z,20.00
2017-08-17T02:22:56.576Z,20.00
2017-08-17T02:25:24.002Z,20.00
2017-08-17T02:27:50.751Z,19.90
2017-08-17T02:30:17.370Z,20.00
2017-08-17T02:32:44.010Z,20.00
2017-08-17T02:35:10.642Z,20.00
2017-08-17T02:37:37.188Z,20.00
2017-08-17T02:40:03.720Z,20.00
2017-08-17T02:42:30.190Z,20.00
2017-08-17T02:44:57.448Z,19.90
2017-08-17T02:47:24.725Z,19.90
2017-08-17T02:49:51.291Z,19.90
2017-08-17T02:52:17.755Z,19.90
2017-08-17T02:54:44.271Z,19.80
2017-08-17T02:57:10.817Z,19.80
2017-08-17T02:59:38.102Z,19.80
2017-08-17T03:02:05.615Z,19.80
2017-08-17T03:04:32.162Z,19.80
2017-08-17T03:06:58.650Z,19.70
2017-08-17T03:09:25.221Z,19.70
2017-08-17T03:11:51.800Z,19.70
2017-08-17T03:14:19.187Z,19.70
2017-08-17T03:16:45.638Z,19.70
2017-08-17T03:19:11.998Z,19.70
2017-08-17T03:21:38.484Z,19.70
2017-08-17T03:24:04.967Z,19.70
2017-08-17T03:26:31.551Z,19.70
2017-08-17T03:28:57.851Z,19.60
2017-08-17T03:31:25.054Z,19.60
2017-08-17T03:33:51.466Z,19.60
2017-08-17T03:36:17.837Z,19.60
2017-08-17T03:38:44.433Z,19.60
2017-08-17T03:41:10.954Z,19.60
2017-08-17T03:43:38.437Z,19.50
2017-08-17T03:46:05.066Z,19.50
2017-08-17T03:48:31.378Z,19.50
2017-08-17T03:50:58.460Z,19.50
2017-08-17T03:53:25.117Z,19.50
2017-08-17T03:55:51.519Z,19.50
2017-08-17T03:58:17.826Z,19.50
2017-08-17T04:00:44.983Z,19.50
2017-08-17T04:03:12.292Z,19.50
2017-08-17T04:05:38.834Z,19.50
2017-08-17T04:08:05.235Z,19.50
2017-08-17T04:10:31.783Z,19.50
2017-08-17T04:12:58.087Z,19.50
2017-08-17T04:15:24.561Z,19.50
2017-08-17T04:17:51.086Z,19.50
2017-08-17T04:20:17.553Z,19.50
2017-08-17T04:22:44.104Z,19.50
2017-08-17T04:25:10.593Z,19.50
2017-08-17T04:27:36.917Z,19.50
2017-08-17T04:30:03.506Z,19.50
2017-08-17T04:32:29.979Z,19.40
2017-08-17T04:34:56.472Z,19.50
2017-08-17T04:37:23.744Z,19.50
2017-08-17T04:39:50.114Z,19.50
2017-08-17T04:42:16.455Z,19.50
2017-08-17T04:44:42.755Z,19.50
2017-08-17T04:47:09.103Z,19.50
2017-08-17T04:49:35.445Z,19.60
2017-08-17T04:52:10.688Z,19.60
2017-08-17T04:54:37.004Z,19.60
2017-08-17T04:57:26.410Z,19.60
2017-08-17T04:59:52.855Z,19.60
2017-08-17T05:02:19.992Z,19.70
2017-08-17T05:04:46.631Z,19.70
2017-08-17T05:07:12.948Z,19.70
2017-08-17T05:09:39.311Z,19.70
2017-08-17T05:12:06.403Z,19.70
2017-08-17T05:14:32.700Z,19.70
2017-08-17T05:16:59.287Z,19.80
2017-08-17T05:19:25.631Z,19.80
2017-08-17T05:21:51.975Z,19.80
2017-08-17T05:24:19.387Z,19.90
2017-08-17T05:26:45.744Z,19.80
2017-08-17T05:29:12.036Z,19.90
2017-08-17T05:31:38.476Z,19.90
2017-08-17T05:34:04.775Z,19.90
2017-08-17T05:36:31.091Z,20.00
2017-08-17T05:38:58.177Z,20.00
2017-08-17T05:41:24.480Z,20.00
2017-08-17T05:43:50.820Z,20.10
2017-08-17T05:46:17.131Z,20.10
2017-08-17T05:48:44.233Z,20.10
2017-08-17T05:51:10.536Z,20.10
2017-08-17T05:53:36.841Z,20.20
2017-08-17T05:56:03.978Z,20.20
2017-08-17T05:58:30.285Z,20.20
2017-08-17T06:00:56.642Z,20.20
2017-08-17T06:03:22.938Z,20.20
2017-08-17T06:05:49.312Z,20.30
2017-08-17T06:08:16.360Z,20.30
2017-08-17T06:10:43.388Z,20.30
2017-08-17T06:13:09.723Z,20.30
2017-08-17T06:15:36.088Z,20.40
2017-08-17T06:18:02.394Z,20.40
2017-08-17T06:20:29.512Z,20.40
2017-08-17T06:22:55.972Z,20.40
2017-08-17T06:25:22.611Z,20.40
2017-08-17T06:27:49.792Z,20.50
2017-08-17T06:30:16.212Z,20.50
2017-08-17T06:32:42.671Z,20.50
2017-08-17T06:35:09.236Z,20.50
2017-08-17T06:37:36.518Z,20.60
2017-08-17T06:40:03.006Z,20.50
2017-08-17T06:42:29.669Z,20.60
2017-08-17T06:44:56.123Z,20.60
2017-08-17T06:47:22.450Z,20.60
2017-08-17T06:49:49.169Z,20.60
2017-08-17T06:52:15.684Z,20.60
2017-08-17T06:54:42.076Z,20.60
2017-08-17T06:57:09.371Z,20.60
2017-08-17T06:59:35.747Z,20.60
2017-08-17T07:02:02.915Z,20.70
2017-08-17T07:04:29.951Z,20.70
2017-08-17T07:06:57.046Z,20.80
2017-08-17T07:09:23.403Z,20.80
2017-08-17T07:11:49.842Z,20.80
2017-08-17T07:14:16.434Z,20.90
2017-08-17T07:16:42.899Z,21.00
2017-08-17T07:19:10.546Z,21.10
2017-08-17T07:21:37.031Z,21.10
2017-08-17T07:24:04.071Z,21.30
2017-08-17T07:26:31.228Z,21.40
2017-08-17T07:28:58.373Z,21.40
2017-08-17T07:31:25.476Z,21.50
2017-08-17T07:33:51.806Z,21.50
2017-08-17T07:36:18.134Z,21.60
2017-08-17T07:38:44.483Z,21.70
2017-08-17T07:41:10.782Z,21.80
2017-08-17T07:43:37.124Z,21.80
2017-08-17T07:46:03.645Z,21.90
2017-08-17T07:48:30.000Z,22.00
2017-08-17T07:50:56.360Z,22.10
2017-08-17T07:53:22.726Z,22.20
2017-08-17T07:55:49.095Z,22.20
2017-08-17T07:58:15.428Z,22.30
2017-08-17T08:00:41.774Z,22.40
2017-08-17T08:03:08.109Z,22.50
2017-08-17T08:05:34.511Z,22.60
2017-08-17T08:08:00.873Z,22.60
2017-08-17T08:10:27.328Z,22.70
2017-08-17T08:12:53.718Z,22.80
2017-08-17T08:15:20.078Z,22.90
2017-08-17T08:17:46.388Z,22.90
2017-08-17T08:20:12.772Z,23.00
2017-08-17T08:22:39.832Z,23.20
2017-08-17T08:25:06.204Z,23.20
2017-08-17T08:27:33.568Z,23.30
2017-08-17T08:29:59.907Z,23.30
2017-08-17T08:32:26.219Z,23.40
2017-08-17T08:34:52.516Z,23.50
2017-08-17T08:37:18.866Z,23.60
2017-08-17T08:39:45.176Z,23.70
2017-08-17T08:42:11.482Z,23.80
2017-08-17T08:44:38.646Z,23.90
2017-08-17T08:47:04.951Z,23.90
2017-08-17T08:49:32.170Z,24.00
2017-08-17T08:51:58.543Z,24.00
2017-08-17T08:54:25.589Z,24.10
2017-08-17T08:56:52.640Z,24.20
2017-08-17T08:59:19.824Z,24.20
2017-08-17T09:01:46.144Z,24.20
2017-08-17T09:04:12.526Z,24.30
2017-08-17T09:06:38.839Z,24.30
2017-08-17T09:09:05.245Z,24.40
2017-08-17T09:11:31.546Z,24.50
2017-08-17T09:13:58.600Z,24.60
2017-08-17T09:16:24.939Z,24.60
2017-08-17T09:18:51.248Z,24.70
2017-08-17T09:21:18.351Z,24.80
2017-08-17T09:23:44.659Z,24.80
2017-08-17T09:26:11.028Z,24.80
2017-08-17T09:28:37.374Z,24.80
2017-08-17T09:31:03.684Z,24.90
2017-08-17T09:33:30.043Z,24.90
2017-08-17T09:35:56.416Z,24.90
2017-08-17T09:38:22.751Z,24.90
2017-08-17T09:40:49.167Z,24.90
2017-08-17T09:43:16.213Z,24.90
2017-08-17T09:45:43.282Z,24.90
2017-08-17T09:48:09.626Z,24.90
2017-08-17T09:50:36.024Z,24.90
2017-08-17T09:53:02.467Z,24.80
2017-08-17T09:55:28.856Z,24.80
2017-08-17T09:57:55.207Z,24.80
2017-08-17T10:00:22.256Z,24.70
2017-08-17T10:02:49.368Z,24.80
2017-08-17T10:05:15.700Z,24.70
2017-08-17T10:07:42.061Z,24.80
2017-08-17T10:10:09.132Z,24.80
2017-08-17T10:12:35.442Z,24.80
2017-08-17T10:15:02.588Z,24.70
2017-08-17T10:17:29.679Z,24.80
2017-08-17T10:19:56.042Z,24.70
2017-08-17T10:22:22.359Z,24.80
2017-08-17T10:24:48.672Z,24.90
2017-08-17T10:27:15.031Z,24.90
2017-08-17T10:29:41.366Z,24.90
2017-08-17T10:32:07.669Z,24.90
2017-08-17T10:34:34.024Z,25.00
2017-08-17T10:37:00.354Z,25.00
2017-08-17T10:39:26.656Z,25.00
2017-08-17T10:41:53.001Z,25.00
2017-08-17T10:44:19.306Z,25.00
2017-08-17T10:46:45.649Z,25.00
2017-08-17T10:49:11.956Z,25.00
2017-08-17T10:51:38.324Z,25.00
2017-08-17T10:54:04.663Z,25.00
2017-08-17T10:56:30.959Z,25.00
2017-08-17T10:58:57.379Z,25.10
2017-08-17T11:01:24.461Z,25.10
2017-08-17T11:03:50.838Z,25.10
2017-08-17T11:06:17.207Z,25.20
2017-08-17T11:08:43.601Z,25.20
2017-08-17T11:11:09.944Z,25.30
2017-08-17T11:13:37.055Z,25.20
2017-08-17T11:16:03.404Z,25.20
2017-08-17T11:18:29.711Z,25.30
2017-08-17T11:20:56.014Z,25.30
2017-08-17T11:23:22.396Z,25.30
2017-08-17T11:25:48.831Z,25.30
2017-08-17T11:28:15.231Z,25.40
2017-08-17T11:30:41.609Z,25.40
2017-08-17T11:33:08.791Z,25.40
2017-08-17T11:35:35.131Z,25.40
2017-08-17T11:38:01.569Z,25.40
2017-08-17T11:40:28.165Z,25.40
2017-08-17T11:42:55.227Z,25.50
2017-08-17T11:45:22.900Z,25.50
2017-08-17T11:47:50.116Z,25.50
2017-08-17T11:50:17.169Z,25.50
2017-08-17T11:52:44.434Z,25.50
2017-08-17T11:55:10.933Z,25.50
2017-08-17T11:57:37.721Z,25.50
2017-08-17T12:00:04.290Z,25.50
2017-08-17T12:02:30.804Z,25.50
2017-08-17T12:04:57.204Z,25.50
2017-08-17T12:07:24.106Z,25.50
2017-08-17T12:09:50.933Z,25.50
2017-08-17T12:12:17.694Z,25.60
2017-08-17T12:14:44.224Z,25.60
2017-08-17T12:17:10.779Z,25.60
2017-08-17T12:19:37.291Z,25.60
2017-08-17T12:22:03.680Z,25.70
2017-08-17T12:24:30.748Z,25.70
2017-08-17T12:26:57.123Z,25.70
2017-08-17T12:29:23.600Z,25.70
2017-08-17T12:31:50.650Z,25.90
2017-08-17T12:34:17.683Z,26.00
2017-08-17T12:36:44.062Z,26.00
2017-08-17T12:39:10.400Z,26.10
2017-08-17T12:41:36.743Z,26.20
2017-08-17T12:44:03.088Z,26.30
2017-08-17T12:46:29.436Z,26.30
2017-08-17T12:48:55.776Z,26.40
2017-08-17T12:51:22.861Z,26.50
2017-08-17T12:53:49.207Z,26.50
2017-08-17T12:56:15.537Z,26.60
2017-08-17T12:58:41.901Z,26.70
2017-08-17T13:01:08.239Z,26.80
2017-08-17T13:03:34.647Z,26.80
2017-08-17T13:06:01.388Z,26.90
2017-08-17T13:08:27.699Z,26.90
2017-08-17T13:10:54.132Z,26.90
2017-08-17T13:13:20.477Z,26.90
2017-08-17T13:15:46.999Z,26.90
2017-08-17T13:18:13.384Z,27.00
2017-08-17T13:20:40.462Z,27.10
2017-08-17T13:23:06.774Z,27.10
2017-08-17T13:25:33.112Z,27.20
2017-08-17T13:27:59.460Z,27.20
2017-08-17T13:30:25.832Z,27.20
2017-08-17T13:32:52.139Z,27.20
2017-08-17T13:35:18.498Z,27.20
2017-08-17T13:37:45.281Z,27.10
2017-08-17T13:40:12.408Z,27.10
2017-08-17T13:42:39.903Z,27.10
2017-08-17T13:45:06.226Z,27.10
2017-08-17T13:47:32.895Z,27.10
2017-08-17T13:49:59.224Z,27.10
2017-08-17T13:52:25.735Z,27.10
2017-08-17T13:54:52.194Z,27.10
2017-08-17T13:57:18.515Z,27.10
2017-08-17T13:59:44.941Z,27.00
2017-08-17T14:02:11.344Z,27.00
2017-08-17T14:04:37.644Z,27.00
2017-08-17T14:07:03.954Z,26.90
2017-08-17T14:09:30.474Z,26.90
2017-08-17T14:11:56.824Z,26.90
2017-08-17T14:14:23.119Z,26.80
2017-08-17T14:16:49.676Z,26.70
2017-08-17T14:19:16.094Z,26.70
2017-08-17T14:21:42.410Z,26.70
2017-08-17T14:24:08.815Z,26.60
2017-08-17T14:26:35.924Z,26.50
2017-08-17T14:29:02.258Z,26.50
2017-08-17T14:31:28.617Z,26.50
2017-08-17T14:33:55.769Z,26.40
2017-08-17T14:36:22.171Z,26.40
2017-08-17T14:38:48.580Z,26.30
2017-08-17T14:41:14.899Z,26.30
2017-08-17T14:43:41.270Z,26.30
2017-08-17T14:46:07.620Z,26.40
2017-08-17T14:48:34.296Z,26.40
2017-08-17T14:51:00.613Z,26.40
2017-08-17T14:53:27.131Z,26.40
2017-08-17T14:55:53.715Z,26.40
2017-08-17T14:58:20.451Z,26.40
2017-08-17T15:00:46.845Z,26.40
2017-08-17T15:03:13.365Z,26.50
2017-08-17T15:05:39.752Z,26.50
2017-08-17T15:08:06.225Z,26.50
2017-08-17T15:10:33.451Z,26.60
2017-08-17T15:12:59.971Z,26.50
2017-08-17T15:15:27.653Z,26.60
2017-08-17T15:17:54.722Z,26.60
2017-08-17T15:20:21.088Z,26.60
2017-08-17T15:22:48.367Z,26.60
2017-08-17T15:25:14.791Z,26.60
2017-08-17T15:27:41.138Z,26.50
2017-08-17T15:30:07.540Z,26.50
2017-08-17T15:32:34.742Z,26.40
2017-08-17T15:35:01.280Z,26.40
2017-08-17T15:37:27.616Z,26.40
2017-08-17T15:39:54.004Z,26.40
2017-08-17T15:42:20.461Z,26.30
2017-08-17T15:44:46.827Z,26.30
2017-08-17T15:47:13.740Z,26.30
2017-08-17T15:49:40.381Z,26.30
2017-08-17T15:52:06.752Z,26.20
2017-08-17T15:54:33.097Z,26.20
2017-08-17T15:57:00.222Z,26.20
2017-08-17T15:59:26.613Z,26.10
2017-08-17T16:01:53.002Z,26.10
2017-08-17T16:04:19.316Z,26.10
2017-08-17T16:06:45.724Z,26.10
2017-08-17T16:09:12.164Z,26.10
2017-08-17T16:11:38.537Z,26.00
2017-08-17T16:14:05.654Z,26.00
2017-08-17T16:16:32.015Z,26.00
2017-08-17T16:18:59.084Z,26.00
2017-08-17T16:21:25.424Z,26.00
2017-08-17T16:23:51.844Z,26.00
2017-08-17T16:26:18.264Z,26.00
2017-08-17T16:28:45.433Z,26.00
2017-08-17T16:31:11.786Z,26.00
2017-08-17T16:33:38.181Z,26.00
2017-08-17T16:36:05.422Z,25.90
2017-08-17T16:38:32.582Z,25.90
2017-08-17T16:40:59.672Z,25.90
2017-08-17T16:43:26.349Z,25.90
2017-08-17T16:45:52.659Z,25.90
2017-08-17T16:48:18.970Z,25.90
2017-08-17T16:50:45.300Z,25.90
2017-08-17T16:53:11.595Z,25.80
2017-08-17T16:55:38.679Z,25.80
2017-08-17T16:58:04.984Z,25.80
2017-08-17T17:00:31.365Z,25.80
2017-08-17T17:02:57.774Z,25.70
2017-08-17T17:05:24.148Z,25.70
2017-08-17T17:07:50.710Z,25.70
2017-08-17T17:10:17.771Z,25.70
2017-08-17T17:12:44.171Z,25.70
2017-08-17T17:15:11.284Z,25.60
2017-08-17T17:17:37.580Z,25.70
2017-08-17T17:20:04.019Z,25.60
2017-08-17T17:22:30.353Z,25.60
2017-08-17T17:24:56.716Z,25.60
2017-08-17T17:27:23.057Z,25.50
2017-08-17T17:29:49.467Z,25.50
2017-08-17T17:32:15.789Z,25.50
2017-08-17T17:34:42.155Z,25.50
2017-08-17T17:37:08.537Z,25.40
2017-08-17T17:39:34.856Z,25.40
2017-08-17T17:42:01.234Z,25.40
2017-08-17T17:44:27.666Z,25.30
2017-08-17T17:46:53.962Z,25.30
2017-08-17T17:49:20.272Z,25.30
2017-08-17T17:51:47.353Z,25.20
2017-08-17T17:54:13.651Z,25.20
2017-08-17T17:56:40.757Z,25.20
2017-08-17T17:59:07.375Z,25.10
2017-08-17T18:01:33.720Z,25.10
2017-08-17T18:04:00.098Z,25.10
2017-08-17T18:06:27.241Z,25.10
2017-08-17T18:08:54.361Z,25.10
2017-08-17T18:11:20.697Z,25.00
2017-08-17T18:13:47.008Z,25.00
2017-08-17T18:16:13.367Z,25.00
2017-08-17T18:18:39.785Z,24.90
2017-08-17T18:21:06.121Z,24.90
2017-08-17T18:23:32.506Z,24.80
2017-08-17T18:25:58.851Z,24.80
2017-08-17T18:28:25.198Z,24.70
2017-08-17T18:30:51.573Z,24.70
2017-08-17T18:33:18.620Z,24.60
2017-08-17T18:35:45.813Z,24.60
2017-08-17T18:38:12.363Z,24.50
2017-08-17T18:40:39.627Z,24.40
2017-08-17T18:43:06.251Z,24.40
2017-08-17T18:45:32.636Z,24.40
2017-08-17T18:47:59.775Z,24.30
2017-08-17T18:50:26.237Z,24.30
2017-08-17T18:52:52.613Z,24.20
2017-08-17T18:55:18.982Z,24.20
2017-08-17T18:57:46.295Z,24.10
2017-08-17T19:00:12.649Z,24.10
2017-08-17T19:02:39.015Z,24.10
2017-08-17T19:05:06.175Z,24.00
2017-08-17T19:07:32.520Z,24.00
2017-08-17T19:09:58.843Z,24.00
2017-08-17T19:12:25.192Z,23.90
2017-08-17T19:14:51.502Z,23.90
2017-08-17T19:17:18.183Z,23.80
2017-08-17T19:19:44.605Z,23.80
2017-08-17T19:22:10.950Z,23.80
2017-08-17T19:24:37.268Z,23.70
2017-08-17T19:27:03.672Z,23.70
2017-08-17T19:29:30.018Z,23.60
2017-08-17T19:31:56.372Z,23.60
2017-08-17T19:34:22.735Z,23.50
2017-08-17T19:36:49.842Z,23.50
2017-08-17T19:39:16.223Z,23.40
2017-08-17T19:41:43.307Z,23.40
2017-08-17T19:44:09.621Z,23.40
2017-08-17T19:46:35.982Z,23.30
2017-08-17T19:49:02.306Z,23.30
2017-08-17T19:51:28.653Z,23.20
2017-08-17T19:53:55.008Z,23.20
2017-08-17T19:56:21.350Z,23.10
2017-08-17T19:58:48.435Z,23.00
2017-08-17T20:01:14.898Z,23.00
2017-08-17T20:03:41.244Z,23.00
2017-08-17T20:06:07.609Z,23.00
2017-08-17T20:08:33.991Z,23.00
2017-08-17T20:11:01.313Z,22.90
2017-08-17T20:13:27.632Z,22.90
2017-08-17T20:15:54.264Z,22.90
2017-08-17T20:18:20.568Z,22.90
2017-08-17T20:20:47.658Z,22.80
2017-08-17T20:23:14.078Z,22.80
2017-08-17T20:25:40.459Z,22.80
2017-08-17T20:28:06.803Z,22.80
2017-08-17T20:31:12.369Z,22.80
2017-08-17T20:33:39.587Z,22.70
2017-08-17T20:36:05.909Z,22.70
2017-08-17T20:38:32.224Z,22.70
2017-08-17T20:40:58.595Z,22.60
2017-08-17T20:43:24.900Z,22.60
2017-08-17T20:45:51.214Z,22.50
2017-08-17T20:48:17.563Z,22.50
2017-08-17T20:50:43.866Z,22.40
2017-08-17T20:53:10.209Z,22.40
2017-08-17T20:55:36.584Z,22.40
2017-08-17T20:58:02.919Z,22.40
2017-08-17T21:00:29.259Z,22.30
2017-08-17T21:02:56.362Z,22.30
2017-08-17T21:05:22.678Z,22.30
2017-08-17T21:07:49.019Z,22.20
2017-08-17T21:10:15.447Z,22.20
2017-08-17T21:12:41.794Z,22.20
2017-08-17T21:15:08.208Z,22.20
2017-08-17T21:17:34.545Z,22.10
2017-08-17T21:20:00.843Z,22.10
2017-08-17T21:22:27.967Z,22.10
2017-08-17T21:24:54.291Z,22.10
2017-08-17T21:27:20.692Z,22.10
2017-08-17T21:29:47.049Z,22.10
2017-08-17T21:32:13.516Z,22.10
2017-08-17T21:34:42.087Z,22.10
2017-08-17T21:37:08.493Z,22.00
2017-08-17T21:39:34.933Z,22.00
2017-08-17T21:42:01.293Z,22.00
2017-08-17T21:44:27.723Z,22.00
2017-08-17T21:46:54.944Z,22.00
2017-08-17T21:49:21.428Z,21.90
2017-08-17T21:51:47.816Z,21.90
2017-08-17T21:54:16.881Z,21.90
2017-08-17T21:56:43.184Z,21.80
2017-08-17T21:59:09.607Z,21.80
2017-08-17T22:01:36.718Z,21.80
2017-08-17T22:04:03.080Z,21.80
2017-08-17T22:06:30.263Z,21.70
2017-08-17T22:08:56.623Z,21.70
2017-08-17T22:11:22.928Z,21.80
2017-08-17T22:13:49.260Z,21.70
2017-08-17T22:16:15.565Z,21.70
2017-08-17T22:18:41.948Z,21.60
2017-08-17T22:21:08.250Z,21.60
2017-08-17T22:23:34.551Z,21.60
2017-08-17T22:26:01.638Z,21.60
2017-08-17T22:28:27.949Z,21.60
2017-08-17T22:30:54.247Z,21.60
2017-08-17T22:33:21.368Z,21.60
2017-08-17T22:35:47.960Z,21.60
2017-08-17T22:38:14.419Z,21.60
2017-08-17T22:40:40.806Z,21.60
2017-08-17T22:43:07.847Z,21.50
2017-08-17T22:45:35.048Z,21.50
2017-08-17T22:48:01.373Z,21.50
2017-08-17T22:50:27.720Z,21.50
2017-08-17T22:52:54.065Z,21.50
2017-08-17T22:55:20.424Z,21.50
2017-08-17T22:57:47.565Z,21.40
2017-08-17T23:00:13.964Z,21.40
2017-08-17T23:02:40.271Z,21.40
2017-08-17T23:05:06.628Z,21.40
2017-08-17T23:07:33.063Z,21.40
2017-08-17T23:09:59.370Z,21.40
2017-08-17T23:12:25.748Z,21.30
2017-08-17T23:14:52.051Z,21.30
2017-08-17T23:17:18.438Z,21.30
2017-08-17T23:19:44.823Z,21.30
2017-08-17T23:22:11.951Z,21.30
2017-08-17T23:24:38.312Z,21.30
2017-08-17T23:27:04.632Z,21.20
2017-08-17T23:29:30.996Z,21.20
2017-08-17T23:31:58.054Z,21.20
2017-08-17T23:34:25.096Z,21.20
2017-08-17T23:36:52.185Z,21.20
2017-08-17T23:39:18.492Z,21.10
2017-08-17T23:41:44.844Z,21.20
2017-08-17T23:44:11.139Z,21.10
2017-08-17T23:46:38.192Z,21.10
2017-08-17T23:49:05.288Z,21.10
2017-08-17T23:51:31.599Z,21.10
2017-08-17T23:53:58.154Z,21.10
2017-08-17T23:56:24.524Z,21.10
2017-08-17T23:58:50.868Z,21.10
